createdAt,value
2023-04-08T00:01:59.426Z,100994.31
2023-04-08T00:04:27.322Z,101004.59
2023-04-08T00:06:56.234Z,100997.66
2023-04-08T00:09:24.029Z,100997.72
2023-04-08T00:11:52.978Z,101001.16
2023-04-08T00:14:20.629Z,100996.03
2023-04-08T00:16:48.575Z,100997.69
2023-04-08T00:19:16.255Z,100991.72
2023-04-08T00:21:44.260Z,100998.66
2023-04-08T00:24:11.964Z,100999.44
2023-04-08T00:26:39.904Z,100995.97
2023-04-08T00:29:07.561Z,101002.97
2023-04-08T00:31:35.700Z,101008.13
2023-04-08T00:34:03.406Z,100999.50
2023-04-08T00:36:31.308Z,101001.31
2023-04-08T00:38:58.987Z,101004.78
2023-04-08T00:41:27.048Z,101000.44
2023-04-08T00:43:54.951Z,101002.25
2023-04-08T00:46:23.113Z,100997.09
2023-04-08T00:48:51.386Z,100998.84
2023-04-08T00:51:20.493Z,101011.88
2023-04-08T00:53:48.139Z,101010.16
2023-04-08T00:56:16.334Z,101013.63
2023-04-08T00:58:44.010Z,101004.97
2023-04-08T01:01:22.676Z,101017.06
2023-04-08T01:04:15.451Z,101015.28
2023-04-08T01:07:17.393Z,101023.06
2023-04-08T01:09:59.066Z,101020.44
2023-04-08T01:12:31.837Z,101024.69
2023-04-08T01:15:06.961Z,101024.69
2023-04-08T01:17:37.267Z,101024.59
2023-04-08T01:20:07.433Z,101018.47
2023-04-08T01:22:51.003Z,101024.44
2023-04-08T01:25:26.311Z,101019.09
2023-04-08T01:27:57.627Z,101019.06
2023-04-08T01:30:27.281Z,101011.22
2023-04-08T01:32:56.849Z,101013.75
2023-04-08T01:35:25.099Z,101015.34
2023-04-08T01:37:55.715Z,101024.81
2023-04-08T01:40:23.930Z,101027.75
2023-04-08T01:42:56.102Z,101037.22
2023-04-08T01:45:25.648Z,101035.28
2023-04-08T01:47:54.507Z,101036.78
2023-04-08T01:50:22.432Z,101040.19
2023-04-08T01:52:53.760Z,101043.69
2023-04-08T01:55:22.200Z,101050.78
2023-04-08T01:57:52.372Z,101042.16
2023-04-08T02:00:28.193Z,101036.75
2023-04-08T02:02:57.801Z,101042.47
2023-04-08T02:05:25.613Z,101039.75
2023-04-08T02:07:53.633Z,101041.34
2023-04-08T02:10:21.414Z,101045.38
2023-04-08T02:12:49.925Z,101050.38
2023-04-08T02:15:17.902Z,101045.84
2023-04-08T02:17:52.700Z,101048.31
2023-04-08T02:20:31.429Z,101049.03
2023-04-08T02:23:21.526Z,101056.66
2023-04-08T02:25:50.558Z,101062.47
2023-04-08T02:28:19.854Z,101064.84
2023-04-08T02:30:53.404Z,101073.34
2023-04-08T02:33:22.222Z,101071.84
2023-04-08T02:35:56.086Z,101068.59
2023-04-08T02:38:29.792Z,101071.28
2023-04-08T02:40:58.681Z,101069.91
2023-04-08T02:43:31.843Z,101071.41
2023-04-08T02:46:03.728Z,101074.78
2023-04-08T02:48:32.439Z,101074.06
2023-04-08T02:51:00.081Z,101080.34
2023-04-08T02:53:28.082Z,101085.59
2023-04-08T02:55:55.814Z,101085.66
2023-04-08T02:58:23.743Z,101089.78
2023-04-08T03:00:51.559Z,101095.41
2023-04-08T03:03:19.602Z,101098.41
2023-04-08T03:05:47.307Z,101097.16
2023-04-08T03:08:15.444Z,101102.00
2023-04-08T03:10:43.233Z,101103.50
2023-04-08T03:13:11.219Z,101102.53
2023-04-08T03:15:38.904Z,101104.19
2023-04-08T03:18:07.022Z,101100.75
2023-04-08T03:20:34.768Z,101097.28
2023-04-08T03:23:02.855Z,101103.25
2023-04-08T03:25:31.682Z,101110.81
2023-04-08T03:27:59.751Z,101104.69
2023-04-08T03:30:27.480Z,101107.31
2023-04-08T03:32:55.664Z,101108.69
2023-04-08T03:35:23.405Z,101111.25
2023-04-08T03:37:51.361Z,101115.34
2023-04-08T03:40:19.169Z,101113.66
2023-04-08T03:42:47.241Z,101111.81
2023-04-08T03:45:14.866Z,101122.84
2023-04-08T03:47:42.813Z,101127.84
2023-04-08T03:50:10.973Z,101122.91
2023-04-08T03:52:38.869Z,101133.91
2023-04-08T03:55:06.694Z,101129.75
2023-04-08T03:57:34.692Z,101133.53
2023-04-08T04:00:02.405Z,101134.53
2023-04-08T04:02:40.402Z,101131.34
2023-04-08T04:05:08.865Z,101138.56
2023-04-08T04:07:36.812Z,101145.31
2023-04-08T04:10:04.806Z,101148.47
2023-04-08T04:12:32.795Z,101143.63
2023-04-08T04:15:00.654Z,101143.25
2023-04-08T04:17:28.594Z,101146.06
2023-04-08T04:19:56.427Z,101154.88
2023-04-08T04:22:24.351Z,101155.13
2023-04-08T04:24:52.049Z,101161.22
2023-04-08T04:27:20.020Z,101160.44
2023-04-08T04:29:47.660Z,101156.91
2023-04-08T04:32:16.126Z,101161.50
2023-04-08T04:34:44.770Z,101161.59
2023-04-08T04:37:12.775Z,101168.50
2023-04-08T04:39:40.556Z,101176.31
2023-04-08T04:42:08.444Z,101164.69
2023-04-08T04:44:36.459Z,101169.22
2023-04-08T04:47:04.434Z,101171.06
2023-04-08T04:49:32.204Z,101166.94
2023-04-08T04:52:00.134Z,101168.41
2023-04-08T04:54:27.892Z,101169.31
2023-04-08T04:56:55.770Z,101182.88
2023-04-08T04:59:23.387Z,101177.94
2023-04-08T05:01:51.465Z,101179.53
2023-04-08T05:04:19.206Z,101186.03
2023-04-08T05:06:47.172Z,101184.03
2023-04-08T05:09:14.787Z,101186.72
2023-04-08T05:11:42.737Z,101194.41
2023-04-08T05:14:10.524Z,101193.59
2023-04-08T05:16:39.251Z,101192.78
2023-04-08T05:19:06.964Z,101198.28
2023-04-08T05:21:34.973Z,101197.47
2023-04-08T05:24:02.646Z,101195.09
2023-04-08T05:26:31.046Z,101200.84
2023-04-08T05:28:58.732Z,101193.88
2023-04-08T05:31:27.198Z,101194.81
2023-04-08T05:33:54.877Z,101193.69
2023-04-08T05:36:22.773Z,101202.94
2023-04-08T05:38:50.982Z,101195.31
2023-04-08T05:41:18.998Z,101204.72
2023-04-08T05:43:46.728Z,101210.97
2023-04-08T05:46:14.823Z,101212.34
2023-04-08T05:48:42.504Z,101212.47
2023-04-08T05:51:17.919Z,101209.75
2023-04-08T05:53:48.494Z,101219.66
2023-04-08T05:56:16.403Z,101216.69
2023-04-08T05:58:44.094Z,101219.50
2023-04-08T06:01:11.946Z,101219.16
2023-04-08T06:03:39.811Z,101225.16
2023-04-08T06:06:14.338Z,101221.88
2023-04-08T06:08:42.128Z,101223.78
2023-04-08T06:11:10.163Z,101230.00
2023-04-08T06:13:38.445Z,101230.78
2023-04-08T06:16:21.131Z,101229.00
2023-04-08T06:18:49.474Z,101237.41
2023-04-08T06:21:17.757Z,101230.00
2023-04-08T06:23:45.409Z,101226.34
2023-04-08T06:26:13.438Z,101235.41
2023-04-08T06:28:41.207Z,101233.56
2023-04-08T06:31:09.308Z,101231.25
2023-04-08T06:33:36.938Z,101234.66
2023-04-08T06:36:07.661Z,101231.06
2023-04-08T06:38:35.794Z,101229.03
2023-04-08T06:41:04.690Z,101237.31
2023-04-08T06:43:33.081Z,101230.50
2023-04-08T06:46:01.287Z,101234.44
2023-04-08T06:48:30.633Z,101232.72
2023-04-08T06:51:00.536Z,101235.59
2023-04-08T06:53:33.480Z,101229.91
2023-04-08T06:56:02.011Z,101237.84
2023-04-08T06:58:30.086Z,101236.22
2023-04-08T07:00:59.260Z,101238.94
2023-04-08T07:03:27.083Z,101239.44
2023-04-08T07:05:55.259Z,101238.44
2023-04-08T07:08:22.950Z,101244.13
2023-04-08T07:10:53.094Z,101232.72
2023-04-08T07:13:20.906Z,101230.06
2023-04-08T07:15:48.835Z,101240.97
2023-04-08T07:18:16.740Z,101248.94
2023-04-08T07:20:44.817Z,101246.31
2023-04-08T07:23:12.494Z,101247.97
2023-04-08T07:25:40.437Z,101250.84
2023-04-08T07:28:08.162Z,101260.00
2023-04-08T07:30:36.762Z,101261.38
2023-04-08T07:33:04.577Z,101275.25
2023-04-08T07:35:33.694Z,101267.16
2023-04-08T07:38:01.482Z,101263.59
2023-04-08T07:40:30.183Z,101265.34
2023-04-08T07:42:57.901Z,101261.84
2023-04-08T07:45:25.967Z,101254.59
2023-04-08T07:47:53.790Z,101258.53
2023-04-08T07:50:21.731Z,101265.34
2023-04-08T07:52:49.501Z,101264.53
2023-04-08T07:55:17.505Z,101260.38
2023-04-08T07:57:46.194Z,101257.63
2023-04-08T08:00:20.905Z,101258.78
2023-04-08T08:02:49.095Z,101258.94
2023-04-08T08:05:17.262Z,101251.41
2023-04-08T08:07:45.313Z,101257.69
2023-04-08T08:10:13.273Z,101255.94
2023-04-08T08:12:41.023Z,101255.66
2023-04-08T08:15:09.650Z,101265.44
2023-04-08T08:17:37.295Z,101260.09
2023-04-08T08:20:05.753Z,101261.38
2023-04-08T08:22:33.613Z,101254.91
2023-04-08T08:25:01.583Z,101255.88
2023-04-08T08:27:29.360Z,101257.72
2023-04-08T08:29:57.698Z,101248.53
2023-04-08T08:32:26.029Z,101246.22
2023-04-08T08:34:53.923Z,101245.03
2023-04-08T08:37:22.005Z,101246.69
2023-04-08T08:39:50.009Z,101240.19
2023-04-08T08:42:24.910Z,101252.09
2023-04-08T08:44:54.641Z,101246.44
2023-04-08T08:47:22.517Z,101241.06
2023-04-08T08:49:51.017Z,101240.78
2023-04-08T08:52:18.870Z,101238.78
2023-04-08T08:54:47.189Z,101235.97
2023-04-08T08:57:21.178Z,101243.34
2023-04-08T08:59:49.441Z,101243.16
2023-04-08T09:02:34.109Z,101243.19
2023-04-08T09:05:04.937Z,101245.53
2023-04-08T09:07:37.061Z,101239.38
2023-04-08T09:10:05.515Z,101237.44
2023-04-08T09:12:33.349Z,101241.09
2023-04-08T09:15:11.211Z,101243.09
2023-04-08T09:17:41.554Z,101244.13
2023-04-08T09:20:12.172Z,101244.88
2023-04-08T09:22:59.723Z,101250.44
2023-04-08T09:25:32.838Z,101247.94
2023-04-08T09:28:02.185Z,101249.19
2023-04-08T09:30:32.673Z,101252.84
2023-04-08T09:33:01.463Z,101253.66
2023-04-08T09:35:29.881Z,101251.81
2023-04-08T09:37:57.762Z,101257.91
2023-04-08T09:40:27.451Z,101247.75
2023-04-08T09:42:57.243Z,101252.75
2023-04-08T09:45:28.175Z,101253.09
2023-04-08T09:48:17.537Z,101248.34
2023-04-08T09:50:50.140Z,101232.63
2023-04-08T09:53:26.743Z,101244.94
2023-04-08T09:55:57.482Z,101245.06
2023-04-08T09:58:39.760Z,101237.47
2023-04-08T10:01:10.108Z,101241.78
2023-04-08T10:03:46.155Z,101235.06
2023-04-08T10:06:14.769Z,101237.31
2023-04-08T10:08:43.791Z,101227.88
2023-04-08T10:11:12.158Z,101229.94
2023-04-08T10:13:39.898Z,101226.91
2023-04-08T10:16:19.378Z,101229.94
2023-04-08T10:18:47.713Z,101225.66
2023-04-08T10:21:38.812Z,101225.38
2023-04-08T10:24:11.052Z,101225.94
2023-04-08T10:26:43.821Z,101229.50
2023-04-08T10:29:26.673Z,101228.28
2023-04-08T10:31:55.045Z,101236.09
2023-04-08T10:34:27.348Z,101233.16
2023-04-08T10:36:56.991Z,101221.63
2023-04-08T10:39:27.247Z,101222.63
2023-04-08T10:41:56.398Z,101219.94
2023-04-08T10:44:26.767Z,101215.38
2023-04-08T10:46:55.673Z,101210.56
2023-04-08T10:49:32.172Z,101216.13
2023-04-08T10:52:00.877Z,101215.06
2023-04-08T10:54:28.675Z,101212.09
2023-04-08T10:56:56.752Z,101209.31
2023-04-08T10:59:34.967Z,101202.06
2023-04-08T11:02:03.486Z,101200.66
2023-04-08T11:04:31.637Z,101193.31
2023-04-08T11:06:59.801Z,101191.94
2023-04-08T11:09:27.525Z,101193.03
2023-04-08T11:11:56.710Z,101195.00
2023-04-08T11:14:25.595Z,101187.47
2023-04-08T11:16:53.777Z,101185.47
2023-04-08T11:19:22.909Z,101189.88
2023-04-08T11:21:52.205Z,101179.81
2023-04-08T11:24:22.405Z,101181.59
2023-04-08T11:26:50.570Z,101183.44
2023-04-08T11:29:18.404Z,101185.81
2023-04-08T11:31:48.425Z,101179.06
2023-04-08T11:34:23.653Z,101186.50
2023-04-08T11:36:52.731Z,101184.19
2023-04-08T11:39:23.977Z,101177.31
2023-04-08T11:41:52.002Z,101179.88
2023-04-08T11:44:19.734Z,101172.75
2023-04-08T11:46:57.388Z,101169.34
2023-04-08T11:49:25.257Z,101169.88
2023-04-08T11:52:00.312Z,101168.38
2023-04-08T11:54:29.678Z,101170.84
2023-04-08T11:56:58.425Z,101164.94
2023-04-08T11:59:28.964Z,101160.03
2023-04-08T12:01:58.170Z,101157.56
2023-04-08T12:04:26.298Z,101153.69
2023-04-08T12:06:55.368Z,101165.97
2023-04-08T12:09:24.630Z,101162.84
2023-04-08T12:11:52.517Z,101162.91
2023-04-08T12:14:22.066Z,101154.03
2023-04-08T12:16:50.102Z,101152.31
2023-04-08T12:19:17.784Z,101155.09
2023-04-08T12:21:45.694Z,101146.56
2023-04-08T12:24:13.398Z,101150.66
2023-04-08T12:26:41.485Z,101148.00
2023-04-08T12:29:11.758Z,101135.47
2023-04-08T12:31:39.794Z,101139.91
2023-04-08T12:34:07.572Z,101136.22
2023-04-08T12:36:36.146Z,101131.06
2023-04-08T12:39:03.877Z,101137.47
2023-04-08T12:41:31.823Z,101135.44
2023-04-08T12:43:59.587Z,101129.72
2023-04-08T12:46:28.488Z,101132.31
2023-04-08T12:49:03.472Z,101129.66
2023-04-08T12:51:32.398Z,101129.66
2023-04-08T12:54:01.321Z,101122.25
2023-04-08T12:56:29.828Z,101120.53
2023-04-08T12:58:57.761Z,101124.91
2023-04-08T13:01:25.887Z,101122.34
2023-04-08T13:03:54.291Z,101116.19
2023-04-08T13:06:22.569Z,101115.56
2023-04-08T13:08:50.391Z,101107.94
2023-04-08T13:11:18.427Z,101105.13
2023-04-08T13:13:46.938Z,101113.91
2023-04-08T13:16:15.618Z,101110.16
2023-04-08T13:18:43.523Z,101108.72
2023-04-08T13:21:11.423Z,101114.59
2023-04-08T13:23:39.243Z,101111.34
2023-04-08T13:26:07.256Z,101109.97
2023-04-08T13:28:53.849Z,101111.97
2023-04-08T13:31:23.048Z,101113.66
2023-04-08T13:33:50.746Z,101104.91
2023-04-08T13:36:19.933Z,101099.31
2023-04-08T13:38:47.793Z,101101.56
2023-04-08T13:41:15.572Z,101103.13
2023-04-08T13:43:43.478Z,101101.94
2023-04-08T13:46:11.423Z,101099.91
2023-04-08T13:48:39.562Z,101096.13
2023-04-08T13:51:07.260Z,101094.78
2023-04-08T13:53:35.392Z,101099.19
2023-04-08T13:56:03.773Z,101093.44
2023-04-08T13:58:31.753Z,101101.81
2023-04-08T14:00:59.558Z,101103.00
2023-04-08T14:03:28.264Z,101096.03
2023-04-08T14:05:55.925Z,101097.56
2023-04-08T14:08:26.629Z,101100.81
2023-04-08T14:10:57.954Z,101085.13
2023-04-08T14:13:25.875Z,101091.81
2023-04-08T14:15:55.086Z,101092.50
2023-04-08T14:18:23.094Z,101091.13
2023-04-08T14:20:50.770Z,101088.69
2023-04-08T14:23:18.680Z,101091.69
2023-04-08T14:25:46.369Z,101078.63
2023-04-08T14:28:14.349Z,101077.75
2023-04-08T14:30:42.841Z,101072.03
2023-04-08T14:33:11.168Z,101075.06
2023-04-08T14:35:38.901Z,101078.38
2023-04-08T14:38:06.844Z,101075.13
2023-04-08T14:40:36.505Z,101070.66
2023-04-08T14:43:05.627Z,101065.66
2023-04-08T14:45:33.349Z,101066.63
2023-04-08T14:48:01.365Z,101067.88
2023-04-08T14:50:29.379Z,101070.25
2023-04-08T14:52:57.480Z,101070.22
2023-04-08T14:55:25.954Z,101066.88
2023-04-08T14:57:53.977Z,101071.28
2023-04-08T15:00:21.832Z,101078.50
2023-04-08T15:02:50.036Z,101066.50
2023-04-08T15:05:17.870Z,101071.28
2023-04-08T15:07:47.359Z,101070.47
2023-04-08T15:10:15.234Z,101066.59
2023-04-08T15:12:43.085Z,101078.63
2023-04-08T15:15:11.141Z,101088.84
2023-04-08T15:17:39.244Z,101076.59
2023-04-08T15:20:07.738Z,101084.38
2023-04-08T15:22:35.876Z,101080.09
2023-04-08T15:25:05.275Z,101080.31
2023-04-08T15:27:34.471Z,101080.22
2023-04-08T15:30:02.352Z,101086.03
2023-04-08T15:32:30.716Z,101087.50
2023-04-08T15:34:58.608Z,101085.75
2023-04-08T15:37:26.589Z,101086.94
2023-04-08T15:39:54.642Z,101086.25
2023-04-08T15:42:23.136Z,101093.34
2023-04-08T15:44:50.811Z,101086.59
2023-04-08T15:47:18.844Z,101094.63
2023-04-08T15:49:47.544Z,101094.84
2023-04-08T15:52:15.604Z,101088.56
2023-04-08T15:54:43.253Z,101091.19
2023-04-08T15:57:11.360Z,101095.91
2023-04-08T15:59:39.058Z,101093.97
2023-04-08T16:02:07.449Z,101100.22
2023-04-08T16:04:35.442Z,101099.34
2023-04-08T16:07:04.146Z,101093.13
2023-04-08T16:09:32.053Z,101093.94
2023-04-08T16:12:00.050Z,101101.47
2023-04-08T16:14:28.264Z,101094.84
2023-04-08T16:16:57.693Z,101098.31
2023-04-08T16:19:25.410Z,101100.03
2023-04-08T16:21:53.353Z,101108.81
2023-04-08T16:24:21.667Z,101096.91
2023-04-08T16:26:49.733Z,101099.88
2023-04-08T16:29:17.379Z,101102.97
2023-04-08T16:31:45.473Z,101111.06
2023-04-08T16:34:13.083Z,101104.63
2023-04-08T16:36:41.039Z,101103.31
2023-04-08T16:39:09.496Z,101109.66
2023-04-08T16:41:39.470Z,101108.59
2023-04-08T16:44:07.261Z,101109.56
2023-04-08T16:46:36.253Z,101117.13
2023-04-08T16:49:03.948Z,101117.38
2023-04-08T16:51:32.061Z,101120.41
2023-04-08T16:53:59.968Z,101122.22
2023-04-08T16:56:28.151Z,101122.72
2023-04-08T16:58:56.110Z,101109.91
2023-04-08T17:01:24.181Z,101119.06
2023-04-08T17:03:53.147Z,101125.28
2023-04-08T17:06:21.745Z,101123.28
2023-04-08T17:08:49.501Z,101137.41
2023-04-08T17:11:17.777Z,101138.16
2023-04-08T17:13:45.814Z,101144.59
2023-04-08T17:16:15.936Z,101143.59
2023-04-08T17:18:44.528Z,101150.22
2023-04-08T17:21:14.401Z,101153.00
2023-04-08T17:23:42.204Z,101146.28
2023-04-08T17:26:11.210Z,101152.00
2023-04-08T17:28:39.440Z,101154.06
2023-04-08T17:31:07.454Z,101156.84
2023-04-08T17:33:35.180Z,101171.03
2023-04-08T17:36:03.498Z,101164.44
2023-04-08T17:38:32.295Z,101175.94
2023-04-08T17:41:00.510Z,101176.00
2023-04-08T17:43:28.258Z,101178.91
2023-04-08T17:46:02.967Z,101178.19
2023-04-08T17:48:30.811Z,101185.50
2023-04-08T17:51:02.830Z,101183.63
2023-04-08T17:53:32.084Z,101192.53
2023-04-08T17:56:00.790Z,101196.09
2023-04-08T17:58:28.573Z,101203.34
2023-04-08T18:00:56.552Z,101203.41
2023-04-08T18:03:24.482Z,101199.94
2023-04-08T18:05:55.162Z,101204.56
2023-04-08T18:08:24.094Z,101209.06
2023-04-08T18:10:52.047Z,101210.31
2023-04-08T18:13:19.859Z,101216.38
2023-04-08T18:15:47.832Z,101211.19
2023-04-08T18:18:19.523Z,101213.13
2023-04-08T18:20:47.597Z,101214.16
2023-04-08T18:23:15.240Z,101222.16
2023-04-08T18:25:46.312Z,101225.78
2023-04-08T18:28:14.074Z,101227.75
2023-04-08T18:30:43.335Z,101217.53
2023-04-08T18:33:11.251Z,101224.81
2023-04-08T18:35:39.313Z,101219.78
2023-04-08T18:38:07.069Z,101217.25
2023-04-08T18:40:35.514Z,101215.44
2023-04-08T18:43:05.016Z,101213.72
2023-04-08T18:45:33.006Z,101211.47
2023-04-08T18:48:00.969Z,101215.09
2023-04-08T18:50:28.938Z,101214.22
2023-04-08T18:52:56.700Z,101209.81
2023-04-08T18:55:24.839Z,101211.53
2023-04-08T18:57:52.557Z,101202.84
2023-04-08T19:00:20.533Z,101202.84
2023-04-08T19:02:48.294Z,101206.47
2023-04-08T19:05:16.957Z,101204.81
2023-04-08T19:07:44.571Z,101208.22
2023-04-08T19:10:12.474Z,101202.16
2023-04-08T19:12:40.246Z,101205.03
2023-04-08T19:15:08.472Z,101200.69
2023-04-08T19:17:36.116Z,101204.88
2023-04-08T19:20:04.255Z,101192.78
2023-04-08T19:22:32.066Z,101192.09
2023-04-08T19:25:00.361Z,101196.53
2023-04-08T19:27:28.015Z,101192.25
2023-04-08T19:29:56.345Z,101191.38
2023-04-08T19:32:24.096Z,101190.56
2023-04-08T19:34:52.362Z,101185.41
2023-04-08T19:37:20.096Z,101192.16
2023-04-08T19:39:47.961Z,101184.09
2023-04-08T19:42:15.572Z,101186.66
2023-04-08T19:44:43.507Z,101188.41
2023-04-08T19:47:11.299Z,101180.47
2023-04-08T19:49:39.402Z,101183.88
2023-04-08T19:52:07.552Z,101172.56
2023-04-08T19:54:36.463Z,101188.25
2023-04-08T19:57:06.389Z,101185.56
2023-04-08T19:59:35.118Z,101185.59
2023-04-08T20:02:05.804Z,101184.72
2023-04-08T20:04:34.105Z,101187.09
2023-04-08T20:07:03.793Z,101187.03
2023-04-08T20:09:32.691Z,101187.25
2023-04-08T20:12:04.667Z,101178.53
2023-04-08T20:14:34.293Z,101183.84
2023-04-08T20:17:02.252Z,101177.00
2023-04-08T20:19:30.539Z,101178.94
2023-04-08T20:21:58.267Z,101186.81
2023-04-08T20:24:26.367Z,101180.97
2023-04-08T20:26:55.100Z,101180.97
2023-04-08T20:29:23.207Z,101182.44
2023-04-08T20:31:51.903Z,101179.03
2023-04-08T20:34:19.926Z,101183.09
2023-04-08T20:36:47.585Z,101177.91
2023-04-08T20:39:15.534Z,101176.94
2023-04-08T20:41:43.161Z,101174.38
2023-04-08T20:44:11.130Z,101181.72
2023-04-08T20:46:39.120Z,101177.44
2023-04-08T20:49:07.699Z,101178.41
2023-04-08T20:51:35.726Z,101182.66
2023-04-08T20:54:03.873Z,101189.44
2023-04-08T20:56:31.569Z,101183.53
2023-04-08T20:59:00.405Z,101181.91
2023-04-08T21:01:28.671Z,101186.16
2023-04-08T21:03:57.224Z,101184.50
2023-04-08T21:06:24.911Z,101184.53
2023-04-08T21:08:53.544Z,101169.56
2023-04-08T21:11:21.755Z,101177.31
2023-04-08T21:13:49.819Z,101178.28
2023-04-08T21:16:17.761Z,101179.78
2023-04-08T21:18:45.955Z,101168.63
2023-04-08T21:21:13.917Z,101163.69
2023-04-08T21:23:41.826Z,101167.38
2023-04-08T21:26:15.548Z,101156.09
2023-04-08T21:28:44.118Z,101157.00
2023-04-08T21:31:12.944Z,101155.28
2023-04-08T21:33:41.116Z,101159.63
2023-04-08T21:36:09.051Z,101155.34
2023-04-08T21:38:36.892Z,101157.16
2023-04-08T21:41:04.713Z,101158.78
2023-04-08T21:43:32.749Z,101157.13
2023-04-08T21:46:00.418Z,101157.19
2023-04-08T21:48:28.519Z,101170.22
2023-04-08T21:50:56.255Z,101160.38
2023-04-08T21:53:24.187Z,101168.00
2023-04-08T21:55:52.176Z,101156.94
2023-04-08T21:58:20.139Z,101164.41
2023-04-08T22:00:49.236Z,101149.91
2023-04-08T22:03:17.446Z,101146.41
2023-04-08T22:05:45.756Z,101143.94
2023-04-08T22:08:13.640Z,101139.59
2023-04-08T22:10:41.287Z,101131.00
2023-04-08T22:13:10.681Z,101136.22
2023-04-08T22:15:38.383Z,101135.38
2023-04-08T22:18:06.418Z,101137.16
2023-04-08T22:20:34.082Z,101139.72
2023-04-08T22:23:02.013Z,101136.97
2023-04-08T22:25:29.728Z,101134.34
2023-04-08T22:27:57.620Z,101139.47
2023-04-08T22:30:25.374Z,101142.97
2023-04-08T22:32:53.301Z,101136.09
2023-04-08T22:35:21.473Z,101136.88
2023-04-08T22:37:49.412Z,101139.56
2023-04-08T22:40:17.080Z,101137.00
2023-04-08T22:42:45.096Z,101130.88
2023-04-08T22:45:12.862Z,101135.97
2023-04-08T22:47:40.856Z,101130.88
2023-04-08T22:50:08.927Z,101134.38
2023-04-08T22:52:36.915Z,101138.78
2023-04-08T22:55:05.550Z,101129.31
2023-04-08T22:57:34.673Z,101137.09
2023-04-08T23:00:04.391Z,101131.00
2023-04-08T23:02:32.485Z,101130.09
2023-04-08T23:05:00.398Z,101128.41
2023-04-08T23:07:28.296Z,101129.22
2023-04-08T23:09:56.016Z,101120.59
2023-04-08T23:12:23.951Z,101127.53
2023-04-08T23:14:51.729Z,101130.19
2023-04-08T23:17:19.722Z,101120.59
2023-04-08T23:19:47.499Z,101124.06
2023-04-08T23:22:15.598Z,101123.03
2023-04-08T23:24:43.500Z,101118.84
2023-04-08T23:27:11.443Z,101116.19
2023-04-08T23:29:39.163Z,101123.97
2023-04-08T23:32:07.052Z,101113.63
2023-04-08T23:34:38.146Z,101110.97
2023-04-08T23:37:06.116Z,101110.13
2023-04-08T23:39:33.737Z,101101.41
2023-04-08T23:42:01.795Z,101102.31
2023-04-08T23:44:29.573Z,101101.44
2023-04-08T23:46:57.498Z,101103.09
2023-04-08T23:49:25.424Z,101103.19
2023-04-08T23:51:53.674Z,101102.34
2023-04-08T23:54:22.580Z,101099.81
2023-04-08T23:56:50.621Z,101094.53
2023-04-08T23:59:18.374Z,101098.03
